Villa Universitaria, Puerto Rico
Current Conditions -  °F | °C
As of 12:50 AM on Monday 29 Dec 2014 (Local Time) from TJPS Reporting Station
Few Clouds Few Clouds  
Wind Chill: 19°   Ceiling: Unl
Heat Index: 19°   Visibility: 8mi
Dew Point: 17°   Wind: 6mph
Humidity: 88%   Direction: 30°NNE
Pressure: 30.01"   Gusts: NA
Location:  17.9849°N, 66.1175°W
Report Text: TJPS 290450Z 03005KT 8SM FEW030 19/17 A3001
Loading
Personal Weather Stations






























Interactive Weather Map New forecast layout! Learn more

10-Day Weather Forecast

Advertisements
Track Severe Weather on mobile